DAL2566 KEWR-KDTW
Flight info
| Callsign | DAL2566 |
|---|---|
| Flight time | 1h 16m |
| Altitude | 34000 |
| Route | GAYEL J95 CFB TRAAD JACCI FERRL2 |
| Aircraft | A319/M-SDE3FGHIRWY/LB1 |
Departure
| Time | 2026-04-24 01:40 |
|---|---|
| Airport | Newark Liberty International Airport (KEWR) |
Arrival
| Time | 2026-04-24 02:56 |
|---|---|
| Airport | Detroit Metropolitan Wayne County Airport (KDTW) |
| Time | Latitude | Longitude | Altitude | Speed | Heading |
|---|---|---|---|---|---|
| 2026-04-24 01:16 | 40.68315 | -74.18651 | 22 ft | 0 kts | 336° |
| 2026-04-24 01:31 | 40.68302 | -74.18643 | 22 ft | 4 kts | 337° |
| 2026-04-24 01:31 | 40.68278 | -74.18630 | 22 ft | 2 kts | 337° |
| 2026-04-24 01:32 | 40.68257 | -74.18621 | 23 ft | 4 kts | 355° |
| 2026-04-24 01:32 | 40.68230 | -74.18623 | 23 ft | 4 kts | 12° |
| 2026-04-24 01:32 | 40.68209 | -74.18630 | 22 ft | 4 kts | 12° |
| 2026-04-24 01:32 | 40.68183 | -74.18637 | 22 ft | 2 kts | 12° |
| 2026-04-24 01:33 | 40.68166 | -74.18642 | 22 ft | 1 kts | 12° |
| 2026-04-24 01:34 | 40.68179 | -74.18638 | 24 ft | 4 kts | 12° |
| 2026-04-24 01:34 | 40.68199 | -74.18598 | 22 ft | 8 kts | 88° |
| 2026-04-24 01:35 | 40.68195 | -74.18510 | 22 ft | 12 kts | 93° |
| 2026-04-24 01:35 | 40.68189 | -74.18383 | 22 ft | 16 kts | 93° |
| 2026-04-24 01:35 | 40.68180 | -74.18233 | 22 ft | 17 kts | 95° |
| 2026-04-24 01:35 | 40.68171 | -74.18078 | 22 ft | 17 kts | 94° |
| 2026-04-24 01:36 | 40.68125 | -74.17940 | 23 ft | 17 kts | 136° |
| 2026-04-24 01:36 | 40.68053 | -74.17816 | 24 ft | 17 kts | 121° |
| 2026-04-24 01:36 | 40.67960 | -74.17838 | 23 ft | 15 kts | 206° |
| 2026-04-24 01:36 | 40.67875 | -74.17892 | 24 ft | 13 kts | 206° |
| 2026-04-24 01:37 | 40.67789 | -74.17947 | 22 ft | 14 kts | 206° |
| 2026-04-24 01:37 | 40.67701 | -74.18005 | 22 ft | 14 kts | 206° |
| 2026-04-24 01:37 | 40.67616 | -74.18051 | 22 ft | 6 kts | 187° |
| 2026-04-24 01:37 | 40.67599 | -74.18043 | 22 ft | 0 kts | 142° |
| 2026-04-24 01:38 | 40.67596 | -74.18040 | 22 ft | 2 kts | 140° |
| 2026-04-24 01:38 | 40.67568 | -74.17989 | 24 ft | 10 kts | 120° |
| 2026-04-24 01:38 | 40.67581 | -74.17918 | 24 ft | 9 kts | 30° |
| 2026-04-24 01:38 | 40.67597 | -74.17908 | 23 ft | 0 kts | 26° |
| 2026-04-24 01:39 | 40.67611 | -74.17899 | 23 ft | 9 kts | 25° |
| 2026-04-24 01:40 | 40.67888 | -74.17724 | 20 ft | 82 kts | 26° |
| 2026-04-24 01:40 | 40.68599 | -74.17270 | 25 ft | 142 kts | 25° |
| 2026-04-24 01:40 | 40.69595 | -74.16634 | 362 ft | 160 kts | 24° |
| 2026-04-24 01:40 | 40.70506 | -74.15809 | 1020 ft | 163 kts | 41° |
| 2026-04-24 01:41 | 40.71319 | -74.14773 | 1665 ft | 164 kts | 40° |
| 2026-04-24 01:41 | 40.72177 | -74.13708 | 2142 ft | 177 kts | 39° |
| 2026-04-24 01:41 | 40.73121 | -74.12535 | 2553 ft | 195 kts | 39° |
| 2026-04-24 01:41 | 40.74164 | -74.11234 | 2889 ft | 220 kts | 40° |
| 2026-04-24 01:42 | 40.75391 | -74.09860 | 3361 ft | 239 kts | 27° |
| 2026-04-24 01:42 | 40.76972 | -74.09048 | 3985 ft | 251 kts | 8° |
| 2026-04-24 01:42 | 40.78714 | -74.09017 | 4921 ft | 249 kts | 348° |
| 2026-04-24 01:42 | 40.80306 | -74.09788 | 6047 ft | 242 kts | 328° |
| 2026-04-24 01:43 | 40.81616 | -74.11238 | 6836 ft | 252 kts | 309° |
| 2026-04-24 01:43 | 40.82420 | -74.13312 | 7714 ft | 259 kts | 289° |
| 2026-04-24 01:43 | 40.83032 | -74.15464 | 8807 ft | 249 kts | 302° |
| 2026-04-24 01:43 | 40.84221 | -74.17077 | 9743 ft | 252 kts | 329° |
| 2026-04-24 01:44 | 40.85979 | -74.17686 | 10296 ft | 273 kts | 348° |
| 2026-04-24 01:44 | 40.87911 | -74.18058 | 10737 ft | 290 kts | 346° |
| 2026-04-24 01:44 | 40.89976 | -74.18571 | 10955 ft | 313 kts | 344° |
| 2026-04-24 01:44 | 40.92165 | -74.19211 | 11263 ft | 329 kts | 342° |
| 2026-04-24 01:45 | 40.94414 | -74.19929 | 11921 ft | 334 kts | 342° |
| 2026-04-24 01:45 | 40.96660 | -74.20681 | 12744 ft | 333 kts | 341° |
| 2026-04-24 01:45 | 40.98912 | -74.21450 | 13492 ft | 335 kts | 341° |
| 2026-04-24 01:45 | 41.01177 | -74.22229 | 14150 ft | 338 kts | 341° |
| 2026-04-24 01:46 | 41.03469 | -74.23018 | 14771 ft | 342 kts | 341° |
| 2026-04-24 01:46 | 41.05783 | -74.23809 | 15345 ft | 346 kts | 341° |
| 2026-04-24 01:46 | 41.08129 | -74.24604 | 15991 ft | 349 kts | 341° |
| 2026-04-24 01:46 | 41.10492 | -74.25405 | 16640 ft | 351 kts | 340° |
| 2026-04-24 01:47 | 41.12875 | -74.26215 | 17229 ft | 355 kts | 341° |
| 2026-04-24 01:47 | 41.15275 | -74.27034 | 17782 ft | 358 kts | 340° |
| 2026-04-24 01:47 | 41.17699 | -74.27862 | 18311 ft | 361 kts | 340° |
| 2026-04-24 01:47 | 41.20136 | -74.28695 | 18858 ft | 363 kts | 341° |
| 2026-04-24 01:48 | 41.22594 | -74.29533 | 19374 ft | 365 kts | 341° |
| 2026-04-24 01:48 | 41.25060 | -74.30374 | 19888 ft | 367 kts | 340° |
| 2026-04-24 01:48 | 41.27540 | -74.31221 | 20385 ft | 369 kts | 340° |
| 2026-04-24 01:48 | 41.30000 | -74.32064 | 20836 ft | 371 kts | 340° |
| 2026-04-24 01:49 | 41.32507 | -74.32926 | 21294 ft | 373 kts | 340° |
| 2026-04-24 01:49 | 41.35021 | -74.33789 | 21756 ft | 374 kts | 341° |
| 2026-04-24 01:49 | 41.37496 | -74.34819 | 22179 ft | 372 kts | 333° |
| 2026-04-24 01:49 | 41.39745 | -74.36484 | 22594 ft | 370 kts | 323° |
| 2026-04-24 01:50 | 41.41674 | -74.38746 | 22989 ft | 371 kts | 313° |
| 2026-04-24 01:50 | 41.43201 | -74.41525 | 23379 ft | 374 kts | 303° |
| 2026-04-24 01:50 | 41.44496 | -74.44547 | 23763 ft | 376 kts | 302° |
| 2026-04-24 01:50 | 41.45801 | -74.47575 | 24136 ft | 378 kts | 302° |
| 2026-04-24 01:51 | 41.47118 | -74.50618 | 24485 ft | 379 kts | 302° |
| 2026-04-24 01:51 | 41.48444 | -74.53675 | 24813 ft | 381 kts | 302° |
| 2026-04-24 01:51 | 41.49775 | -74.56741 | 25157 ft | 383 kts | 302° |
| 2026-04-24 01:51 | 41.51110 | -74.59821 | 25464 ft | 385 kts | 302° |
| 2026-04-24 01:52 | 41.52450 | -74.62923 | 25748 ft | 387 kts | 303° |
| 2026-04-24 01:52 | 41.53796 | -74.66049 | 26067 ft | 389 kts | 302° |
| 2026-04-24 01:52 | 41.55142 | -74.69190 | 26362 ft | 391 kts | 302° |
| 2026-04-24 01:52 | 41.56500 | -74.72354 | 26639 ft | 393 kts | 302° |
| 2026-04-24 01:53 | 41.57854 | -74.75513 | 27059 ft | 391 kts | 302° |
| 2026-04-24 01:53 | 41.59184 | -74.78619 | 27500 ft | 389 kts | 302° |
| 2026-04-24 01:53 | 41.60527 | -74.81759 | 27901 ft | 389 kts | 302° |
| 2026-04-24 01:53 | 41.61865 | -74.84886 | 28323 ft | 387 kts | 302° |
| 2026-04-24 01:54 | 41.63198 | -74.88008 | 28744 ft | 386 kts | 302° |
| 2026-04-24 01:54 | 41.64528 | -74.91121 | 29149 ft | 385 kts | 303° |
| 2026-04-24 01:54 | 41.65856 | -74.94227 | 29547 ft | 384 kts | 303° |
| 2026-04-24 01:54 | 41.67180 | -74.97330 | 29964 ft | 383 kts | 302° |
| 2026-04-24 01:55 | 41.68497 | -75.00421 | 30356 ft | 382 kts | 303° |
| 2026-04-24 01:55 | 41.69795 | -75.03465 | 30746 ft | 381 kts | 303° |
| 2026-04-24 01:55 | 41.71103 | -75.06541 | 31126 ft | 380 kts | 303° |
| 2026-04-24 01:55 | 41.72407 | -75.09618 | 31489 ft | 380 kts | 303° |
| 2026-04-24 01:56 | 41.73710 | -75.12696 | 31875 ft | 379 kts | 303° |
| 2026-04-24 01:56 | 41.75007 | -75.15763 | 32249 ft | 379 kts | 303° |
| 2026-04-24 01:56 | 41.76306 | -75.18838 | 32601 ft | 378 kts | 303° |
| 2026-04-24 01:56 | 41.77602 | -75.21903 | 32967 ft | 377 kts | 303° |
| 2026-04-24 01:57 | 41.78895 | -75.24961 | 33335 ft | 377 kts | 303° |
| 2026-04-24 01:57 | 41.80182 | -75.28015 | 33701 ft | 376 kts | 303° |
| 2026-04-24 01:57 | 41.81465 | -75.31067 | 34052 ft | 375 kts | 303° |
| 2026-04-24 01:57 | 41.82749 | -75.34116 | 34386 ft | 375 kts | 303° |
| 2026-04-24 01:58 | 41.84033 | -75.37164 | 34717 ft | 375 kts | 303° |
| 2026-04-24 01:58 | 41.85312 | -75.40205 | 35063 ft | 374 kts | 303° |
| 2026-04-24 01:58 | 41.86586 | -75.43244 | 35393 ft | 373 kts | 303° |
| 2026-04-24 01:58 | 41.87858 | -75.46279 | 35703 ft | 373 kts | 303° |
| 2026-04-24 01:59 | 41.89112 | -75.49272 | 35937 ft | 373 kts | 303° |
| 2026-04-24 01:59 | 41.91663 | -75.55387 | 35986 ft | 377 kts | 302° |
| 2026-04-24 02:00 | 41.94234 | -75.61561 | 35989 ft | 379 kts | 302° |
| 2026-04-24 02:00 | 41.96811 | -75.67741 | 35988 ft | 379 kts | 302° |
| 2026-04-24 02:01 | 41.99388 | -75.73930 | 35987 ft | 379 kts | 302° |
| 2026-04-24 02:01 | 42.01955 | -75.80121 | 35982 ft | 378 kts | 302° |
| 2026-04-24 02:02 | 42.04511 | -75.86308 | 35981 ft | 378 kts | 302° |
| 2026-04-24 02:02 | 42.07066 | -75.92494 | 35984 ft | 379 kts | 302° |
| 2026-04-24 02:03 | 42.10883 | -76.01759 | 35980 ft | 378 kts | 302° |
| 2026-04-24 02:03 | 42.13429 | -76.07967 | 35979 ft | 378 kts | 302° |
| 2026-04-24 02:04 | 42.15618 | -76.14424 | 35985 ft | 385 kts | 290° |
| 2026-04-24 02:04 | 42.16368 | -76.21663 | 35985 ft | 392 kts | 282° |
| 2026-04-24 02:05 | 42.16932 | -76.28980 | 35980 ft | 392 kts | 282° |
| 2026-04-24 02:05 | 42.17494 | -76.36254 | 35982 ft | 393 kts | 282° |
| 2026-04-24 02:06 | 42.18051 | -76.43589 | 35988 ft | 394 kts | 282° |
| 2026-04-24 02:06 | 42.18607 | -76.50949 | 35987 ft | 394 kts | 282° |
| 2026-04-24 02:07 | 42.19152 | -76.58312 | 35991 ft | 395 kts | 282° |
| 2026-04-24 02:07 | 42.19604 | -76.64434 | 35990 ft | 395 kts | 282° |
| 2026-04-24 02:08 | 42.20146 | -76.71814 | 35990 ft | 395 kts | 282° |
| 2026-04-24 02:08 | 42.20684 | -76.79197 | 35989 ft | 395 kts | 282° |
| 2026-04-24 02:09 | 42.21214 | -76.86543 | 35988 ft | 396 kts | 282° |
| 2026-04-24 02:09 | 42.21745 | -76.93942 | 35986 ft | 396 kts | 282° |
| 2026-04-24 02:10 | 42.22268 | -77.01361 | 35983 ft | 397 kts | 282° |
| 2026-04-24 02:10 | 42.22793 | -77.08783 | 35982 ft | 398 kts | 281° |
| 2026-04-24 02:11 | 42.23310 | -77.16226 | 35980 ft | 398 kts | 281° |
| 2026-04-24 02:11 | 42.23817 | -77.23676 | 35980 ft | 399 kts | 281° |
| 2026-04-24 02:12 | 42.24319 | -77.31095 | 35984 ft | 400 kts | 281° |
| 2026-04-24 02:12 | 42.24825 | -77.38623 | 35987 ft | 401 kts | 281° |
| 2026-04-24 02:13 | 42.25321 | -77.46076 | 35991 ft | 401 kts | 281° |
| 2026-04-24 02:13 | 42.25977 | -77.53530 | 35991 ft | 397 kts | 288° |
| 2026-04-24 02:14 | 42.27304 | -77.60770 | 35993 ft | 397 kts | 288° |
| 2026-04-24 02:14 | 42.28622 | -77.68026 | 36001 ft | 398 kts | 288° |
| 2026-04-24 02:15 | 42.29923 | -77.75296 | 36003 ft | 398 kts | 288° |
| 2026-04-24 02:15 | 42.31227 | -77.82579 | 36008 ft | 399 kts | 288° |
| 2026-04-24 02:16 | 42.32526 | -77.89877 | 36008 ft | 400 kts | 288° |
| 2026-04-24 02:16 | 42.33820 | -77.97183 | 36011 ft | 400 kts | 288° |
| 2026-04-24 02:17 | 42.35116 | -78.04493 | 36011 ft | 400 kts | 288° |
| 2026-04-24 02:17 | 42.36411 | -78.11818 | 36014 ft | 401 kts | 288° |
| 2026-04-24 02:18 | 42.37691 | -78.19109 | 36010 ft | 401 kts | 287° |
| 2026-04-24 02:18 | 42.38974 | -78.26455 | 36012 ft | 401 kts | 287° |
| 2026-04-24 02:19 | 42.40259 | -78.33823 | 36013 ft | 402 kts | 287° |
| 2026-04-24 02:19 | 42.41524 | -78.41147 | 36016 ft | 402 kts | 287° |
| 2026-04-24 02:20 | 42.42793 | -78.48509 | 36018 ft | 402 kts | 287° |
| 2026-04-24 02:20 | 42.43864 | -78.54714 | 36016 ft | 402 kts | 287° |
| 2026-04-24 02:21 | 42.45133 | -78.62082 | 36012 ft | 402 kts | 287° |
| 2026-04-24 02:21 | 42.46390 | -78.69465 | 36012 ft | 402 kts | 287° |
| 2026-04-24 02:22 | 42.47128 | -78.77018 | 36009 ft | 408 kts | 277° |
| 2026-04-24 02:22 | 42.47380 | -78.84714 | 36005 ft | 409 kts | 277° |
| 2026-04-24 02:23 | 42.47634 | -78.92415 | 35999 ft | 409 kts | 277° |
| 2026-04-24 02:23 | 42.47883 | -79.00072 | 35998 ft | 410 kts | 277° |
| 2026-04-24 02:24 | 42.48127 | -79.07798 | 35991 ft | 411 kts | 277° |
| 2026-04-24 02:24 | 42.48366 | -79.15536 | 35988 ft | 411 kts | 277° |
| 2026-04-24 02:25 | 42.48598 | -79.23285 | 35985 ft | 412 kts | 277° |
| 2026-04-24 02:25 | 42.48835 | -79.31043 | 35974 ft | 412 kts | 277° |
| 2026-04-24 02:26 | 42.49061 | -79.38804 | 35975 ft | 412 kts | 276° |
| 2026-04-24 02:26 | 42.49283 | -79.46567 | 35977 ft | 413 kts | 276° |
| 2026-04-24 02:27 | 42.49498 | -79.54338 | 35978 ft | 413 kts | 276° |
| 2026-04-24 02:27 | 42.49702 | -79.62125 | 35977 ft | 413 kts | 276° |
| 2026-04-24 02:28 | 42.49904 | -79.69906 | 35976 ft | 414 kts | 276° |
| 2026-04-24 02:28 | 42.50110 | -79.77704 | 35977 ft | 414 kts | 276° |
| 2026-04-24 02:29 | 42.50301 | -79.85514 | 35974 ft | 415 kts | 276° |
| 2026-04-24 02:29 | 42.50481 | -79.93268 | 35973 ft | 415 kts | 276° |
| 2026-04-24 02:30 | 42.50669 | -80.01082 | 35978 ft | 415 kts | 275° |
| 2026-04-24 02:30 | 42.50847 | -80.08907 | 35972 ft | 415 kts | 275° |
| 2026-04-24 02:31 | 42.51020 | -80.16739 | 35973 ft | 416 kts | 275° |
| 2026-04-24 02:31 | 42.51188 | -80.24565 | 35972 ft | 416 kts | 275° |
| 2026-04-24 02:32 | 42.51355 | -80.32397 | 35972 ft | 416 kts | 275° |
| 2026-04-24 02:32 | 42.51320 | -80.40256 | 35717 ft | 418 kts | 272° |
| 2026-04-24 02:33 | 42.51208 | -80.44197 | 35466 ft | 419 kts | 271° |
| 2026-04-24 02:33 | 42.51076 | -80.48137 | 35217 ft | 419 kts | 271° |
| 2026-04-24 02:33 | 42.50942 | -80.52084 | 34967 ft | 419 kts | 271° |
| 2026-04-24 02:33 | 42.50819 | -80.56032 | 34718 ft | 419 kts | 271° |
| 2026-04-24 02:34 | 42.50707 | -80.59979 | 34469 ft | 419 kts | 271° |
| 2026-04-24 02:34 | 42.50604 | -80.63931 | 34219 ft | 419 kts | 272° |
| 2026-04-24 02:34 | 42.50509 | -80.67877 | 33968 ft | 419 kts | 272° |
| 2026-04-24 02:34 | 42.50414 | -80.71829 | 33718 ft | 420 kts | 271° |
| 2026-04-24 02:35 | 42.50316 | -80.75796 | 33468 ft | 421 kts | 271° |
| 2026-04-24 02:35 | 42.50210 | -80.79764 | 33218 ft | 422 kts | 271° |
| 2026-04-24 02:35 | 42.50099 | -80.83740 | 32966 ft | 422 kts | 271° |
| 2026-04-24 02:35 | 42.49992 | -80.87664 | 32721 ft | 423 kts | 271° |
| 2026-04-24 02:36 | 42.49883 | -80.91657 | 32471 ft | 424 kts | 271° |
| 2026-04-24 02:36 | 42.49773 | -80.95660 | 32220 ft | 425 kts | 271° |
| 2026-04-24 02:36 | 42.49657 | -80.99670 | 31968 ft | 425 kts | 271° |
| 2026-04-24 02:36 | 42.49539 | -81.03671 | 31718 ft | 426 kts | 271° |
| 2026-04-24 02:37 | 42.49419 | -81.07677 | 31468 ft | 426 kts | 270° |
| 2026-04-24 02:37 | 42.49299 | -81.11695 | 31218 ft | 427 kts | 270° |
| 2026-04-24 02:37 | 42.49177 | -81.15716 | 30967 ft | 428 kts | 270° |
| 2026-04-24 02:37 | 42.49058 | -81.19749 | 30720 ft | 429 kts | 270° |
| 2026-04-24 02:38 | 42.48941 | -81.23745 | 30475 ft | 430 kts | 270° |
| 2026-04-24 02:38 | 42.48820 | -81.27800 | 30221 ft | 430 kts | 270° |
| 2026-04-24 02:38 | 42.48693 | -81.31856 | 29974 ft | 431 kts | 270° |
| 2026-04-24 02:38 | 42.48565 | -81.35914 | 29724 ft | 432 kts | 270° |
| 2026-04-24 02:39 | 42.48434 | -81.39978 | 29471 ft | 433 kts | 270° |
| 2026-04-24 02:39 | 42.48302 | -81.44060 | 29222 ft | 434 kts | 270° |
| 2026-04-24 02:39 | 42.48167 | -81.48150 | 28982 ft | 435 kts | 270° |
| 2026-04-24 02:39 | 42.48034 | -81.52255 | 28563 ft | 435 kts | 270° |
| 2026-04-24 02:40 | 42.47898 | -81.56359 | 27414 ft | 438 kts | 270° |
| 2026-04-24 02:40 | 42.47760 | -81.60497 | 26243 ft | 441 kts | 269° |
| 2026-04-24 02:40 | 42.47615 | -81.64660 | 25065 ft | 442 kts | 269° |
| 2026-04-24 02:40 | 42.47467 | -81.68831 | 23885 ft | 444 kts | 269° |
| 2026-04-24 02:41 | 42.47320 | -81.72994 | 22700 ft | 441 kts | 269° |
| 2026-04-24 02:41 | 42.47172 | -81.77118 | 21551 ft | 436 kts | 269° |
| 2026-04-24 02:41 | 42.47027 | -81.81127 | 20691 ft | 426 kts | 269° |
| 2026-04-24 02:41 | 42.46882 | -81.85105 | 19864 ft | 419 kts | 269° |
| 2026-04-24 02:42 | 42.46739 | -81.89029 | 19038 ft | 416 kts | 269° |
| 2026-04-24 02:42 | 42.46598 | -81.92934 | 18244 ft | 413 kts | 269° |
| 2026-04-24 02:42 | 42.46456 | -81.96807 | 17458 ft | 411 kts | 269° |
| 2026-04-24 02:42 | 42.46315 | -82.00602 | 16773 ft | 407 kts | 269° |
| 2026-04-24 02:43 | 42.46174 | -82.04426 | 16033 ft | 405 kts | 269° |
| 2026-04-24 02:43 | 42.46031 | -82.08228 | 15316 ft | 403 kts | 268° |
| 2026-04-24 02:43 | 42.45885 | -82.12011 | 14684 ft | 401 kts | 268° |
| 2026-04-24 02:43 | 42.45741 | -82.15712 | 14540 ft | 385 kts | 268° |
| 2026-04-24 02:44 | 42.45603 | -82.19261 | 14391 ft | 375 kts | 268° |
| 2026-04-24 02:44 | 42.45465 | -82.22807 | 14307 ft | 377 kts | 268° |
| 2026-04-24 02:44 | 42.45327 | -82.26306 | 14195 ft | 378 kts | 268° |
| 2026-04-24 02:44 | 42.45190 | -82.29852 | 14032 ft | 376 kts | 268° |
| 2026-04-24 02:45 | 42.45056 | -82.33386 | 13859 ft | 376 kts | 269° |
| 2026-04-24 02:45 | 42.44911 | -82.36924 | 13680 ft | 376 kts | 267° |
| 2026-04-24 02:45 | 42.44673 | -82.40438 | 13289 ft | 375 kts | 265° |
| 2026-04-24 02:45 | 42.44368 | -82.43948 | 12659 ft | 371 kts | 264° |
| 2026-04-24 02:46 | 42.44036 | -82.47409 | 12032 ft | 369 kts | 264° |
| 2026-04-24 02:46 | 42.43700 | -82.50845 | 11426 ft | 366 kts | 264° |
| 2026-04-24 02:46 | 42.43374 | -82.54237 | 11286 ft | 363 kts | 264° |
| 2026-04-24 02:46 | 42.43060 | -82.57586 | 11204 ft | 363 kts | 264° |
| 2026-04-24 02:47 | 42.42753 | -82.60973 | 11054 ft | 362 kts | 264° |
| 2026-04-24 02:47 | 42.42453 | -82.64353 | 10893 ft | 360 kts | 264° |
| 2026-04-24 02:47 | 42.42157 | -82.67719 | 10737 ft | 360 kts | 264° |
| 2026-04-24 02:47 | 42.41862 | -82.71074 | 10580 ft | 359 kts | 264° |
| 2026-04-24 02:48 | 42.41566 | -82.74423 | 10417 ft | 357 kts | 264° |
| 2026-04-24 02:48 | 42.41269 | -82.77751 | 10263 ft | 355 kts | 263° |
| 2026-04-24 02:48 | 42.40973 | -82.81062 | 10102 ft | 354 kts | 263° |
| 2026-04-24 02:48 | 42.40675 | -82.84365 | 9915 ft | 354 kts | 263° |
| 2026-04-24 02:49 | 42.40377 | -82.87655 | 9344 ft | 349 kts | 263° |
| 2026-04-24 02:49 | 42.40082 | -82.90883 | 8973 ft | 338 kts | 262° |
| 2026-04-24 02:49 | 42.39808 | -82.93887 | 8962 ft | 307 kts | 262° |
| 2026-04-24 02:49 | 42.39561 | -82.96626 | 8917 ft | 281 kts | 262° |
| 2026-04-24 02:50 | 42.39329 | -82.99197 | 8511 ft | 270 kts | 262° |
| 2026-04-24 02:50 | 42.39100 | -83.01666 | 7950 ft | 266 kts | 262° |
| 2026-04-24 02:50 | 42.38869 | -83.04134 | 7324 ft | 264 kts | 262° |
| 2026-04-24 02:50 | 42.38625 | -83.06583 | 6702 ft | 261 kts | 258° |
| 2026-04-24 02:51 | 42.38047 | -83.08908 | 5995 ft | 261 kts | 248° |
| 2026-04-24 02:51 | 42.37369 | -83.11148 | 5511 ft | 254 kts | 247° |
| 2026-04-24 02:51 | 42.36673 | -83.13305 | 5107 ft | 245 kts | 246° |
| 2026-04-24 02:51 | 42.35967 | -83.15338 | 4773 ft | 233 kts | 244° |
| 2026-04-24 02:52 | 42.35264 | -83.17245 | 4510 ft | 220 kts | 244° |
| 2026-04-24 02:52 | 42.34586 | -83.19079 | 4080 ft | 218 kts | 243° |
| 2026-04-24 02:52 | 42.33912 | -83.20906 | 3707 ft | 213 kts | 243° |
| 2026-04-24 02:52 | 42.33270 | -83.22627 | 3594 ft | 196 kts | 243° |
| 2026-04-24 02:53 | 42.32660 | -83.24208 | 3369 ft | 184 kts | 242° |
| 2026-04-24 02:53 | 42.32018 | -83.25628 | 3076 ft | 176 kts | 229° |
| 2026-04-24 02:53 | 42.31016 | -83.26603 | 2688 ft | 180 kts | 212° |
| 2026-04-24 02:53 | 42.29991 | -83.27467 | 2534 ft | 166 kts | 212° |
| 2026-04-24 02:54 | 42.28981 | -83.28270 | 2253 ft | 169 kts | 206° |
| 2026-04-24 02:54 | 42.27942 | -83.28981 | 1967 ft | 168 kts | 206° |
| 2026-04-24 02:54 | 42.26917 | -83.29739 | 1729 ft | 167 kts | 209° |
| 2026-04-24 02:54 | 42.25950 | -83.30484 | 1538 ft | 151 kts | 205° |
| 2026-04-24 02:55 | 42.25069 | -83.31122 | 1352 ft | 135 kts | 207° |
| 2026-04-24 02:55 | 42.24274 | -83.31727 | 1122 ft | 129 kts | 205° |
| 2026-04-24 02:55 | 42.23480 | -83.32294 | 1023 ft | 133 kts | 207° |
| 2026-04-24 02:55 | 42.22680 | -83.32886 | 827 ft | 132 kts | 206° |
| 2026-04-24 02:56 | 42.21866 | -83.33486 | 674 ft | 132 kts | 206° |
| 2026-04-24 02:56 | 42.21133 | -83.34023 | 648 ft | 103 kts | 209° |
| 2026-04-24 02:56 | 42.20654 | -83.34376 | 646 ft | 54 kts | 208° |
| 2026-04-24 02:56 | 42.20389 | -83.34569 | 649 ft | 39 kts | 209° |
| 2026-04-24 02:57 | 42.20202 | -83.34729 | 647 ft | 20 kts | 237° |
| 2026-04-24 02:57 | 42.20183 | -83.34913 | 647 ft | 20 kts | 268° |
| 2026-04-24 02:57 | 42.20177 | -83.35103 | 647 ft | 20 kts | 267° |
| 2026-04-24 02:57 | 42.20173 | -83.35298 | 648 ft | 21 kts | 268° |
| 2026-04-24 02:58 | 42.20172 | -83.35498 | 649 ft | 22 kts | 269° |
| 2026-04-24 02:58 | 42.20168 | -83.35703 | 650 ft | 22 kts | 270° |
| 2026-04-24 02:58 | 42.20165 | -83.35842 | 648 ft | 23 kts | 266° |
| 2026-04-24 02:58 | 42.20172 | -83.36004 | 649 ft | 12 kts | 304° |
| 2026-04-24 02:59 | 42.20258 | -83.36013 | 648 ft | 14 kts | 7° |
| 2026-04-24 02:59 | 42.20349 | -83.35967 | 649 ft | 14 kts | 29° |
| 2026-04-24 02:59 | 42.20416 | -83.35982 | 648 ft | 10 kts | 295° |
| 2026-04-24 02:59 | 42.20434 | -83.36030 | 648 ft | 2 kts | 299° |
| 2026-04-24 03:00 | 42.20437 | -83.36035 | 648 ft | 0 kts | 298° |